Time;durP1;ratioP1;P1;durP2;ratioP2;P2;SDS_P1;SDS_P2;PMS_P1;PMS_P2;Temp;Humidity;BMP_temperature;BMP_pressure;BME280_temperature;BME280_humidity;BME280_pressure;Samples;Min_cycle;Max_cycle;Signal;HPM_P1;HPM_P2
2023/07/02 00:01:45;;;;;;;14.38;2.97;;;;;;;15.41;100.00;99931.31;4931182;29;20171;-48
2023/07/02 00:04:13;;;;;;;9.63;2.55;;;;;;;15.48;100.00;99931.75;4931896;29;20304;-48
2023/07/02 00:06:40;;;;;;;14.43;3.10;;;;;;;15.45;100.00;99929.25;4931729;29;20704;-48
2023/07/02 00:09:12;;;;;;;15.07;3.10;;;;;;;15.41;100.00;99934.03;4931671;29;20164;-45
2023/07/02 00:11:39;;;;;;;7.60;3.10;;;;;;;15.45;100.00;99929.25;4931512;29;20172;-44
2023/07/02 00:14:08;;;;;;;10.68;2.85;;;;;;;15.47;100.00;99918.34;4931556;29;20243;-46
2023/07/02 00:16:37;;;;;;;13.13;3.22;;;;;;;15.53;100.00;99918.75;4931624;29;20199;-45
2023/07/02 00:19:02;;;;;;;12.02;2.80;;;;;;;15.51;100.00;99930.66;4934612;29;20254;-44
2023/07/02 00:21:28;;;;;;;10.13;3.03;;;;;;;15.47;100.00;99916.50;4935439;29;20290;-46
2023/07/02 00:23:56;;;;;;;15.95;3.17;;;;;;;15.48;100.00;99922.75;4935145;29;20187;-46
2023/07/02 00:26:24;;;;;;;11.52;2.95;;;;;;;15.53;100.00;99921.47;4935026;29;20183;-47
2023/07/02 00:28:49;;;;;;;7.93;2.90;;;;;;;15.52;100.00;99922.41;4935205;29;20258;-47
2023/07/02 00:31:15;;;;;;;12.68;3.33;;;;;;;15.51;100.00;99918.00;4933556;29;20290;-48
2023/07/02 00:33:40;;;;;;;9.45;3.30;;;;;;;15.52;100.00;99914.31;4935010;29;20205;-49
2023/07/02 00:36:06;;;;;;;10.48;3.47;;;;;;;15.45;100.00;99907.66;4933574;29;20668;-46
2023/07/02 00:38:31;;;;;;;13.63;3.45;;;;;;;15.47;100.00;99908.41;4934900;29;20289;-46
2023/07/02 00:40:58;;;;;;;11.85;3.55;;;;;;;15.44;100.00;99914.03;4933388;29;20211;-47
2023/07/02 00:43:23;;;;;;;12.70;4.40;;;;;;;15.40;100.00;99910.69;4933361;29;20662;-47
2023/07/02 00:45:49;;;;;;;15.43;4.72;;;;;;;15.42;100.00;99919.53;4933389;29;20693;-47
2023/07/02 00:48:14;;;;;;;13.23;4.07;;;;;;;15.43;100.00;99921.25;4933494;29;20199;-47
2023/07/02 00:50:40;;;;;;;13.82;4.03;;;;;;;15.34;100.00;99913.84;4933248;29;20210;-49
2023/07/02 00:53:06;;;;;;;11.52;4.10;;;;;;;15.33;100.00;99911.28;4934941;29;20195;-46
2023/07/02 00:55:31;;;;;;;16.85;4.45;;;;;;;15.23;100.00;99897.56;4934584;29;20549;-46
2023/07/02 00:57:57;;;;;;;20.63;4.45;;;;;;;15.20;100.00;99901.34;4933246;29;20426;-46
2023/07/02 01:00:23;;;;;;;11.73;4.20;;;;;;;15.21;100.00;99897.66;4933130;29;20211;-47
2023/07/02 01:02:58;;;;;;;11.77;3.60;;;;;;;15.23;100.00;99893.03;4934404;29;20251;-48
2023/07/02 01:05:35;;;;;;;14.88;3.80;;;;;;;15.20;100.00;99898.66;4933197;29;20209;-52
2023/07/02 01:08:05;;;;;;;12.82;4.05;;;;;;;15.24;100.00;99888.50;4934372;29;20167;-50
2023/07/02 01:10:32;;;;;;;11.43;4.32;;;;;;;15.30;100.00;99897.97;4934410;29;20555;-48
2023/07/02 01:13:25;;;;;;;18.75;4.20;;;;;;;15.22;100.00;99898.56;4934460;28;20175;-47
2023/07/02 01:15:51;;;;;;;14.50;4.60;;;;;;;15.29;100.00;99907.91;4932398;29;20379;-45
2023/07/02 01:18:16;;;;;;;17.75;4.22;;;;;;;15.25;100.00;99907.28;4933897;29;20171;-48
2023/07/02 01:20:42;;;;;;;15.13;4.10;;;;;;;15.21;100.00;99903.06;4934003;29;20203;-47
2023/07/02 01:23:09;;;;;;;18.58;4.03;;;;;;;15.22;100.00;99902.09;4948753;28;20222;-47
2023/07/02 01:25:37;;;;;;;16.33;4.10;;;;;;;15.18;100.00;99889.81;4933988;29;20182;-47
2023/07/02 01:28:04;;;;;;;13.98;4.13;;;;;;;15.20;100.00;99906.75;4932806;29;20186;-48
2023/07/02 01:30:29;;;;;;;14.15;4.18;;;;;;;15.23;100.00;99917.31;4934221;29;20188;-48
2023/07/02 01:32:55;;;;;;;17.90;5.22;;;;;;;15.19;100.00;99914.94;4932441;29;20646;-47
2023/07/02 01:35:20;;;;;;;16.95;4.93;;;;;;;15.22;100.00;99917.44;4934058;29;20613;-49
2023/07/02 01:37:46;;;;;;;17.15;4.30;;;;;;;15.20;100.00;99922.09;4933854;29;20273;-46
2023/07/02 01:40:11;;;;;;;18.63;4.68;;;;;;;15.25;100.00;99918.06;4933779;29;20215;-48
2023/07/02 01:42:37;;;;;;;21.30;4.88;;;;;;;15.23;100.00;99916.44;4933738;29;20556;-49
2023/07/02 01:45:03;;;;;;;15.77;4.82;;;;;;;15.21;100.00;99921.09;4932438;29;20373;-49
2023/07/02 01:47:29;;;;;;;17.65;5.07;;;;;;;15.16;100.00;99928.66;4932731;29;20609;-49
2023/07/02 01:49:54;;;;;;;15.38;5.00;;;;;;;15.13;100.00;99934.28;4933670;29;20164;-47
2023/07/02 01:52:20;;;;;;;14.32;4.03;;;;;;;15.13;100.00;99926.16;4933733;29;20183;-47
2023/07/02 01:54:46;;;;;;;14.55;4.90;;;;;;;15.11;100.00;99922.72;4932085;29;20206;-48
2023/07/02 01:57:12;;;;;;;12.48;4.18;;;;;;;14.95;100.00;99923.81;4933515;29;20168;-49
2023/07/02 02:00:21;;;;;;;13.88;4.60;;;;;;;14.74;100.00;99910.03;4933328;29;20632;-47
2023/07/02 02:02:47;;;;;;;16.25;4.70;;;;;;;14.77;100.00;99917.03;4933137;29;20714;-45
2023/07/02 02:05:12;;;;;;;20.10;5.38;;;;;;;14.80;100.00;99914.13;4933738;29;20258;-47
2023/07/02 02:07:39;;;;;;;18.77;4.90;;;;;;;14.76;100.00;99909.94;4933379;29;20172;-46
2023/07/02 02:10:06;;;;;;;19.38;5.15;;;;;;;14.72;100.00;99920.06;4933815;29;20171;-48
2023/07/02 02:12:31;;;;;;;17.58;4.80;;;;;;;14.73;100.00;99926.31;4933334;29;20164;-50
2023/07/02 02:14:57;;;;;;;17.45;5.00;;;;;;;14.73;100.00;99924.47;4931616;29;20535;-47
2023/07/02 02:17:23;;;;;;;18.75;5.07;;;;;;;14.78;100.00;99918.75;4933201;29;20178;-47
2023/07/02 02:19:49;;;;;;;13.98;4.72;;;;;;;14.67;100.00;99918.66;4931942;29;20815;-46
2023/07/02 02:22:15;;;;;;;15.65;4.95;;;;;;;14.79;100.00;99915.94;4931884;29;20270;-46
2023/07/02 02:24:40;;;;;;;18.77;5.28;;;;;;;14.74;100.00;99912.72;4933308;29;20294;-48
2023/07/02 02:27:06;;;;;;;18.83;5.38;;;;;;;14.81;100.00;99916.72;4931539;29;20246;-49
2023/07/02 02:29:31;;;;;;;17.88;5.57;;;;;;;14.72;100.00;99924.59;4933165;29;20179;-46
2023/07/02 02:31:56;;;;;;;22.52;5.82;;;;;;;14.60;100.00;99920.91;4920128;29;20176;-47
2023/07/02 02:34:22;;;;;;;20.20;5.53;;;;;;;14.65;100.00;99918.78;4921598;29;20210;-47
2023/07/02 02:36:49;;;;;;;19.73;5.20;;;;;;;14.62;100.00;99927.06;4922311;29;20235;-44
2023/07/02 02:39:14;;;;;;;25.08;5.68;;;;;;;14.62;100.00;99924.34;4920442;29;20279;-44
2023/07/02 02:41:40;;;;;;;20.63;6.00;;;;;;;14.63;100.00;99921.56;4917957;29;20715;-45
2023/07/02 02:44:05;;;;;;;16.70;5.30;;;;;;;14.57;100.00;99931.91;4920921;29;20210;-45
2023/07/02 02:46:31;;;;;;;17.42;5.63;;;;;;;14.65;100.00;99926.88;4927561;29;20176;-44
2023/07/02 02:48:57;;;;;;;16.35;5.80;;;;;;;14.62;100.00;99936.00;4937220;28;20191;-45
2023/07/02 02:51:22;;;;;;;17.85;5.53;;;;;;;14.59;100.00;99938.06;4916418;29;20186;-49
2023/07/02 02:53:47;;;;;;;17.67;5.18;;;;;;;14.63;100.00;99932.34;4924317;29;20215;-44
2023/07/02 02:56:13;;;;;;;16.52;6.10;;;;;;;14.61;100.00;99928.03;4920898;29;20180;-47
2023/07/02 02:58:40;;;;;;;21.27;6.18;;;;;;;14.67;100.00;99934.81;4921463;29;20172;-47
2023/07/02 03:01:10;;;;;;;15.45;5.88;;;;;;;14.65;100.00;99940.34;4925300;29;20211;-46
2023/07/02 03:03:40;;;;;;;23.45;6.25;;;;;;;14.61;100.00;99933.44;4933703;29;20302;-45
2023/07/02 03:06:06;;;;;;;20.30;5.53;;;;;;;14.57;100.00;99935.47;4922556;29;20168;-44
2023/07/02 03:08:31;;;;;;;21.23;6.53;;;;;;;14.59;100.00;99932.69;4919139;29;20190;-48
2023/07/02 03:10:57;;;;;;;25.55;6.45;;;;;;;14.71;100.00;99939.88;4920485;29;20270;-47
2023/07/02 03:13:22;;;;;;;22.15;6.00;;;;;;;14.65;100.00;99945.72;4917713;29;20203;-45
2023/07/02 03:15:48;;;;;;;18.60;5.80;;;;;;;14.63;100.00;99944.97;4923696;29;20533;-46
2023/07/02 03:18:13;;;;;;;22.35;6.57;;;;;;;14.58;100.00;99933.63;4921168;29;20615;-46
2023/07/02 03:20:39;;;;;;;21.13;6.78;;;;;;;14.61;100.00;99933.44;4915860;29;20620;-45
2023/07/02 03:23:04;;;;;;;15.20;5.35;;;;;;;14.67;100.00;99940.22;4920727;29;20215;-48
2023/07/02 03:25:30;;;;;;;17.65;6.13;;;;;;;14.54;100.00;99937.47;4917870;29;20641;-48
2023/07/02 03:27:55;;;;;;;22.15;6.55;;;;;;;14.51;100.00;99935.00;5003843;23;20224;-45
2023/07/02 03:30:21;;;;;;;22.95;7.30;;;;;;;14.49;100.00;99927.00;5009312;28;20184;-45
2023/07/02 03:32:46;;;;;;;19.33;6.55;;;;;;;14.53;100.00;99927.66;5009328;28;20223;-46
2023/07/02 03:35:11;;;;;;;21.45;6.25;;;;;;;14.46;100.00;99927.22;5009379;28;20169;-43
2023/07/02 03:37:37;;;;;;;25.63;7.07;;;;;;;14.43;100.00;99925.63;5009282;28;20189;-45
2023/07/02 03:40:03;;;;;;;24.20;7.10;;;;;;;14.50;100.00;99928.75;5008990;28;20647;-47
2023/07/02 03:42:29;;;;;;;23.08;6.72;;;;;;;14.35;100.00;99927.97;5017354;28;20184;-45
2023/07/02 03:44:54;;;;;;;22.88;6.90;;;;;;;14.38;100.00;99927.75;5009207;28;20262;-50
2023/07/02 03:47:20;;;;;;;26.00;6.72;;;;;;;14.35;100.00;99914.50;5009520;28;20169;-45
2023/07/02 03:49:46;;;;;;;21.58;6.57;;;;;;;14.46;100.00;99910.19;5009820;28;20176;-45
2023/07/02 03:52:11;;;;;;;28.20;7.20;;;;;;;14.41;100.00;99922.16;5011170;28;20188;-49
2023/07/02 03:54:36;;;;;;;23.23;7.18;;;;;;;14.41;100.00;99929.38;5013616;28;20188;-45
2023/07/02 03:57:02;;;;;;;21.60;6.28;;;;;;;14.49;100.00;99924.31;5019489;28;20188;-45
2023/07/02 03:59:28;;;;;;;24.02;6.78;;;;;;;14.45;100.00;99921.94;5006673;28;20204;-46
2023/07/02 04:01:54;;;;;;;21.02;6.00;;;;;;;14.41;100.00;99922.16;5012520;28;20542;-45
2023/07/02 04:04:19;;;;;;;21.08;6.43;;;;;;;14.41;100.00;99927.56;5021386;28;20265;-44
2023/07/02 04:06:45;;;;;;;26.88;7.10;;;;;;;14.47;100.00;99923.56;5012977;28;20520;-43
2023/07/02 04:09:10;;;;;;;16.95;6.57;;;;;;;14.57;100.00;99923.81;5012497;28;20787;-48
2023/07/02 04:11:36;;;;;;;23.20;6.68;;;;;;;14.52;100.00;99925.91;5013172;28;20327;-46
2023/07/02 04:14:01;;;;;;;19.88;6.55;;;;;;;14.50;100.00;99922.50;5013277;28;20291;-45
2023/07/02 04:16:26;;;;;;;16.27;6.38;;;;;;;14.50;100.00;99920.66;5015266;28;20189;-47
2023/07/02 04:18:52;;;;;;;23.27;6.35;;;;;;;14.53;100.00;99923.13;5018810;28;20566;-46
2023/07/02 04:21:17;;;;;;;16.20;6.32;;;;;;;14.57;100.00;99921.13;5013289;28;20685;-45
2023/07/02 04:23:43;;;;;;;26.05;6.57;;;;;;;14.60;100.00;99932.53;5021161;28;20196;-46
2023/07/02 04:26:08;;;;;;;12.98;6.00;;;;;;;14.58;100.00;99928.22;5013233;28;20176;-45
2023/07/02 04:28:34;;;;;;;25.90;7.57;;;;;;;14.61;100.00;99928.03;5013338;28;20212;-46
2023/07/02 04:30:59;;;;;;;21.33;7.07;;;;;;;14.67;100.00;99929.44;5013252;28;20181;-45
2023/07/02 04:33:24;;;;;;;26.05;6.70;;;;;;;14.73;100.00;99934.41;5013253;28;20193;-45
2023/07/02 04:35:50;;;;;;;18.55;6.25;;;;;;;14.79;100.00;99926.75;5013231;28;20615;-47
2023/07/02 04:38:16;;;;;;;17.75;5.60;;;;;;;14.87;100.00;99933.41;5013236;28;20648;-43
2023/07/02 04:40:44;;;;;;;14.43;6.05;;;;;;;14.86;100.00;99937.09;5012946;28;20279;-44
2023/07/02 04:43:10;;;;;;;13.18;5.45;;;;;;;14.77;100.00;99938.59;5012842;28;20188;-42
2023/07/02 04:45:36;;;;;;;20.63;6.07;;;;;;;14.73;100.00;99939.78;5013343;28;20198;-45
2023/07/02 04:48:04;;;;;;;20.08;6.30;;;;;;;14.73;100.00;99937.94;5011741;28;20576;-46
2023/07/02 04:50:29;;;;;;;16.83;6.30;;;;;;;14.75;100.00;99941.41;5011593;28;20555;-46
2023/07/02 04:52:55;;;;;;;23.90;6.82;;;;;;;14.91;100.00;99934.94;5012923;28;20244;-50
2023/07/02 04:55:21;;;;;;;19.77;6.28;;;;;;;14.84;100.00;99929.97;5012780;28;20188;-44
2023/07/02 04:57:46;;;;;;;19.25;5.88;;;;;;;14.98;100.00;99953.28;5020977;28;20173;-44
2023/07/02 05:00:12;;;;;;;17.67;6.00;;;;;;;14.92;100.00;99942.06;5012840;28;20247;-45
2023/07/02 05:02:38;;;;;;;17.70;5.07;;;;;;;14.96;100.00;99935.50;5012964;28;20173;-48
2023/07/02 05:05:04;;;;;;;18.70;6.15;;;;;;;14.97;100.00;99937.19;5012657;28;20234;-44
2023/07/02 05:07:30;;;;;;;15.55;5.10;;;;;;;15.04;100.00;99949.28;5011668;28;20174;-42
2023/07/02 05:09:55;;;;;;;13.77;5.45;;;;;;;15.00;99.87;99945.09;5011540;28;20188;-45
2023/07/02 05:12:20;;;;;;;15.20;5.85;;;;;;;15.05;99.32;99937.53;5012486;28;20267;-47
2023/07/02 05:14:46;;;;;;;18.70;5.78;;;;;;;14.97;98.70;99948.00;5012798;28;20220;-43
2023/07/02 05:17:14;;;;;;;14.10;5.80;;;;;;;14.98;98.00;99950.59;5012763;28;20161;-45
2023/07/02 05:19:40;;;;;;;19.35;5.97;;;;;;;14.94;97.01;99956.31;4993145;28;20404;-43
2023/07/02 05:22:06;;;;;;;17.33;6.05;;;;;;;14.94;96.89;99954.47;4993104;28;20683;-44
2023/07/02 05:24:31;;;;;;;12.32;5.40;;;;;;;15.12;96.20;99960.41;5011394;28;20295;-45
2023/07/02 05:26:57;;;;;;;15.60;5.97;;;;;;;14.92;95.75;99979.84;5012445;28;20181;-45
2023/07/02 05:29:22;;;;;;;17.63;5.95;;;;;;;14.28;97.94;99974.28;5012696;28;20173;-42
2023/07/02 05:31:48;;;;;;;13.70;5.10;;;;;;;13.98;100.00;99954.69;5012608;28;20753;-43
2023/07/02 05:34:13;;;;;;;14.10;5.88;;;;;;;13.88;100.00;99968.84;5012280;28;20273;-43
2023/07/02 05:36:39;;;;;;;17.38;5.57;;;;;;;13.78;100.00;99969.47;5012368;28;20185;-42
2023/07/02 05:39:04;;;;;;;12.07;5.75;;;;;;;13.70;100.00;99969.09;5009943;28;20176;-45
2023/07/02 05:41:30;;;;;;;17.08;5.53;;;;;;;13.75;100.00;99960.72;5011875;28;20565;-45
2023/07/02 05:44:00;;;;;;;14.40;6.00;;;;;;;13.76;100.00;99967.84;5009358;28;20209;-44
2023/07/02 05:46:26;;;;;;;15.52;6.05;;;;;;;13.63;100.00;99973.16;5011105;28;20267;-45
2023/07/02 05:48:51;;;;;;;16.60;5.75;;;;;;;13.59;100.00;99969.78;5010771;28;20795;-43
2023/07/02 05:51:21;;;;;;;10.45;5.50;;;;;;;13.69;100.00;99974.59;5011328;28;20538;-50
2023/07/02 05:53:47;;;;;;;10.60;6.30;;;;;;;13.92;100.00;99962.31;5011372;28;20227;-50
2023/07/02 05:56:13;;;;;;;14.48;5.97;;;;;;;14.01;100.00;99959.88;5011474;28;20312;-44
2023/07/02 05:58:38;;;;;;;10.98;5.68;;;;;;;13.95;100.00;99971.06;5011317;28;20497;-44
2023/07/02 06:01:05;;;;;;;12.73;5.88;;;;;;;14.15;100.00;99972.44;5011093;28;20698;-45
2023/07/02 06:03:30;;;;;;;15.93;6.20;;;;;;;14.17;100.00;99972.34;5011577;28;20224;-45
2023/07/02 06:05:56;;;;;;;17.45;6.47;;;;;;;14.17;100.00;99966.94;5011006;28;20211;-48
2023/07/02 06:08:21;;;;;;;12.60;5.70;;;;;;;14.20;100.00;99964.88;5010916;28;20232;-45
2023/07/02 06:10:47;;;;;;;14.13;6.45;;;;;;;14.06;100.00;99959.56;5011183;28;20627;-43
2023/07/02 06:13:13;;;;;;;15.50;6.25;;;;;;;14.13;100.00;99957.34;5018757;28;20217;-44
2023/07/02 06:15:39;;;;;;;18.48;6.55;;;;;;;14.28;100.00;99953.63;5010367;28;20177;-47
2023/07/02 06:18:04;;;;;;;17.13;6.07;;;;;;;14.40;100.00;99962.69;5010831;28;20200;-49
2023/07/02 06:20:30;;;;;;;13.75;6.38;;;;;;;14.79;100.00;99956.41;5010553;28;20759;-44
2023/07/02 06:22:55;;;;;;;17.77;7.07;;;;;;;15.15;100.00;99959.31;5010202;28;20176;-45
2023/07/02 06:25:21;;;;;;;14.43;6.43;;;;;;;15.62;100.00;99947.78;5010745;28;20195;-49
2023/07/02 06:27:47;;;;;;;18.27;6.78;;;;;;;15.89;100.00;99946.75;5010678;28;20247;-44
2023/07/02 06:30:12;;;;;;;18.63;6.97;;;;;;;16.35;100.00;99942.41;5006619;28;20173;-41
2023/07/02 06:32:38;;;;;;;14.60;6.07;;;;;;;16.14;100.00;99931.41;5010430;28;20176;-45
2023/07/02 06:35:06;;;;;;;21.23;6.82;;;;;;;16.47;100.00;99939.63;5010321;28;20192;-46
2023/07/02 06:37:31;;;;;;;16.42;6.90;;;;;;;16.35;98.60;99940.56;5010497;28;20311;-43
2023/07/02 06:39:57;;;;;;;15.35;6.38;;;;;;;15.96;97.25;99953.44;5007849;28;20727;-44
2023/07/02 06:42:24;;;;;;;15.98;6.95;;;;;;;15.43;96.33;99961.75;5010203;28;20188;-44
2023/07/02 06:44:50;;;;;;;12.02;5.45;;;;;;;15.14;96.24;99969.25;5010518;28;20201;-42
2023/07/02 06:47:15;;;;;;;12.68;5.32;;;;;;;14.82;98.19;99983.19;5010952;28;20175;-45
2023/07/02 06:49:40;;;;;;;11.60;5.72;;;;;;;14.70;100.00;99993.94;5010074;28;20180;-46
2023/07/02 06:52:06;;;;;;;12.90;5.95;;;;;;;14.77;100.00;100008.72;5010037;28;20647;-44
2023/07/02 06:54:32;;;;;;;16.05;6.43;;;;;;;14.69;100.00;99997.59;5009777;28;20245;-45
2023/07/02 06:56:58;;;;;;;15.63;6.30;;;;;;;14.34;100.00;100001.69;5009820;28;20183;-44
2023/07/02 06:59:25;;;;;;;13.68;5.38;;;;;;;14.09;100.00;100017.75;5008947;28;20197;-46
2023/07/02 07:01:51;;;;;;;13.20;5.35;;;;;;;13.98;100.00;99994.22;5015428;28;20584;-45
2023/07/02 07:04:16;;;;;;;13.70;5.47;;;;;;;13.87;100.00;100005.69;5014078;28;20633;-41
2023/07/02 07:06:42;;;;;;;12.05;5.40;;;;;;;13.88;100.00;100003.88;5010471;28;20169;-46
2023/07/02 07:09:08;;;;;;;11.70;5.72;;;;;;;13.88;100.00;99996.66;5010486;28;20188;-48
2023/07/02 07:11:34;;;;;;;15.85;5.85;;;;;;;13.98;100.00;100005.84;5010184;28;20246;-49
2023/07/02 07:13:59;;;;;;;16.63;6.03;;;;;;;14.62;100.00;100006.09;5010539;28;20893;-43
2023/07/02 07:16:25;;;;;;;16.10;5.95;;;;;;;14.59;100.00;100013.56;5010311;28;20176;-44
2023/07/02 07:18:50;;;;;;;14.13;4.93;;;;;;;14.72;100.00;100022.53;5010364;28;20189;-43
2023/07/02 07:21:16;;;;;;;15.82;6.10;;;;;;;14.68;100.00;100026.41;5010164;28;20668;-43
2023/07/02 07:23:41;;;;;;;13.98;5.55;;;;;;;14.46;100.00;100020.72;5010185;28;20204;-45
2023/07/02 07:26:07;;;;;;;14.85;4.63;;;;;;;14.12;100.00;100031.03;5009956;28;20177;-49
2023/07/02 07:28:32;;;;;;;10.98;4.68;;;;;;;14.16;100.00;100019.09;5010085;28;20177;-44
2023/07/02 07:30:58;;;;;;;12.35;5.03;;;;;;;14.14;100.00;100021.00;5010521;28;20693;-45
2023/07/02 07:33:23;;;;;;;13.13;5.25;;;;;;;14.32;100.00;100019.81;5009554;28;20204;-46
2023/07/02 07:35:49;;;;;;;16.17;6.10;;;;;;;14.62;100.00;100022.28;5009207;28;20735;-45
2023/07/02 07:38:15;;;;;;;12.45;5.25;;;;;;;14.49;100.00;100007.88;5008451;28;20230;-45
2023/07/02 07:40:41;;;;;;;7.80;4.50;;;;;;;14.69;100.00;100000.28;5008308;28;20658;-47
2023/07/02 07:43:06;;;;;;;11.20;4.85;;;;;;;14.80;100.00;99998.59;5009324;28;20200;-44
2023/07/02 07:45:33;;;;;;;10.57;5.28;;;;;;;15.23;100.00;99984.78;5017437;28;20188;-41
2023/07/02 07:47:59;;;;;;;12.63;5.25;;;;;;;15.60;100.00;99989.38;5009250;28;20180;-48
2023/07/02 07:50:24;;;;;;;11.82;5.10;;;;;;;15.95;100.00;99985.94;5010000;28;20195;-45
2023/07/02 07:52:51;;;;;;;10.07;4.32;;;;;;;16.36;97.78;99987.41;5009736;28;20164;-44
2023/07/02 07:55:17;;;;;;;12.77;4.40;;;;;;;16.46;94.90;99985.69;5008942;28;20193;-42
2023/07/02 07:57:42;;;;;;;12.50;4.93;;;;;;;16.52;93.08;99969.00;5011059;28;20172;-42
2023/07/02 08:00:11;;;;;;;11.93;5.28;;;;;;;16.75;91.65;99980.78;5012531;28;20209;-42
2023/07/02 08:02:44;;;;;;;11.02;4.50;;;;;;;17.25;90.29;99978.66;5007981;28;20634;-42
2023/07/02 08:05:10;;;;;;;11.48;5.38;;;;;;;17.50;88.96;99974.84;5009396;28;20185;-44
2023/07/02 08:07:35;;;;;;;12.50;5.10;;;;;;;17.90;87.71;99974.31;5011132;28;20180;-48
2023/07/02 08:10:02;;;;;;;13.98;4.82;;;;;;;17.90;87.17;99968.88;5015131;28;20690;-42
2023/07/02 08:12:29;;;;;;;13.90;4.75;;;;;;;17.71;86.66;99976.81;5008912;28;20223;-44
2023/07/02 08:14:57;;;;;;;17.55;5.78;;;;;;;17.94;85.92;99985.75;5011282;28;20302;-45
2023/07/02 08:17:22;;;;;;;16.35;5.75;;;;;;;17.39;84.81;100001.06;5008776;28;20639;-47
2023/07/02 08:19:48;;;;;;;20.75;5.70;;;;;;;16.63;87.17;100017.72;5008638;28;20211;-42
2023/07/02 08:22:13;;;;;;;10.93;4.07;;;;;;;15.83;86.76;100014.72;5024111;28;20677;-43
2023/07/02 08:24:39;;;;;;;9.73;3.60;;;;;;;15.65;87.80;100022.28;5009822;28;20748;-45
2023/07/02 08:27:05;;;;;;;11.07;4.22;;;;;;;15.95;88.08;100031.88;5012071;28;20203;-44
2023/07/02 08:29:30;;;;;;;10.07;4.50;;;;;;;16.57;88.15;100030.84;5004305;28;20555;-43
2023/07/02 08:31:56;;;;;;;10.02;3.58;;;;;;;17.13;86.38;100027.50;5008154;28;20658;-45
2023/07/02 08:34:22;;;;;;;10.15;3.85;;;;;;;17.33;83.72;100015.94;5008664;28;20247;-45
2023/07/02 08:36:47;;;;;;;10.20;3.58;;;;;;;17.12;82.14;100013.09;5012429;28;20892;-47
2023/07/02 08:39:13;;;;;;;7.90;3.17;;;;;;;16.67;81.52;100004.84;5010762;28;20172;-43
2023/07/02 08:41:44;;;;;;;8.65;3.17;;;;;;;17.17;80.62;100005.47;5011322;28;20203;-42
2023/07/02 08:44:11;;;;;;;9.63;2.90;;;;;;;17.17;80.25;99991.09;5012852;28;20248;-46
2023/07/02 08:46:36;;;;;;;8.40;2.72;;;;;;;17.37;79.69;100005.75;5018632;28;20168;-48
2023/07/02 08:49:02;;;;;;;7.65;2.83;;;;;;;17.58;78.98;99995.91;5010086;28;20196;-44
2023/07/02 08:51:28;;;;;;;8.45;3.00;;;;;;;18.11;76.64;99984.38;5013081;28;20196;-45
2023/07/02 08:53:54;;;;;;;5.63;2.80;;;;;;;18.25;74.96;99989.47;5016282;28;20576;-43
2023/07/02 08:56:19;;;;;;;6.53;3.22;;;;;;;18.10;73.45;99983.53;5008862;28;20173;-45
2023/07/02 08:58:45;;;;;;;11.65;3.03;;;;;;;18.43;73.07;99976.25;5018127;28;20222;-50
2023/07/02 09:01:13;;;;;;;8.43;3.42;;;;;;;18.68;71.85;99975.00;5009332;28;20459;-44
2023/07/02 09:03:39;;;;;;;8.32;2.80;;;;;;;18.66;71.14;99963.41;5012380;28;20196;-44
2023/07/02 09:06:06;;;;;;;10.13;3.10;;;;;;;18.14;71.15;99977.81;5021260;28;20641;-43
2023/07/02 09:08:34;;;;;;;9.32;3.75;;;;;;;18.35;71.80;99965.19;5023059;28;20202;-44
2023/07/02 09:11:06;;;;;;;11.85;3.15;;;;;;;17.90;72.31;99976.16;5012560;28;20538;-45
2023/07/02 09:13:43;;;;;;;10.45;3.50;;;;;;;18.21;72.32;99995.28;5015587;28;20278;-47
2023/07/02 09:16:31;;;;;;;15.65;4.47;;;;;;;18.46;71.92;99973.25;5012231;28;20168;-44
2023/07/02 09:19:01;;;;;;;10.10;3.50;;;;;;;18.71;71.70;99977.44;5005503;28;20190;-47
2023/07/02 09:21:45;;;;;;;13.98;4.43;;;;;;;18.77;71.61;99980.63;5011488;28;20674;-47
2023/07/02 09:24:23;;;;;;;10.85;3.53;;;;;;;18.89;70.39;99980.47;5001505;28;20200;-46
2023/07/02 09:26:51;;;;;;;14.10;3.95;;;;;;;18.55;70.84;99995.19;5029277;22;20221;-45
2023/07/02 09:29:26;;;;;;;11.88;3.65;;;;;;;18.67;70.85;100000.44;4991799;28;20208;-46
2023/07/02 09:31:52;;;;;;;12.27;3.58;;;;;;;18.74;71.19;99973.63;4991976;28;20263;-48
2023/07/02 09:34:17;;;;;;;11.45;3.83;;;;;;;19.15;70.57;99974.59;4991944;28;20305;-47
2023/07/02 09:36:44;;;;;;;13.27;4.15;;;;;;;18.56;70.50;99977.91;4991769;28;20548;-45
2023/07/02 09:39:19;;;;;;;11.68;3.58;;;;;;;18.22;70.86;99997.88;4991636;28;20309;-46
2023/07/02 09:41:48;;;;;;;9.70;3.60;;;;;;;18.06;71.57;100017.28;4990759;28;20486;-45
2023/07/02 09:44:15;;;;;;;11.18;3.72;;;;;;;18.33;72.19;100029.53;4991788;28;20611;-48
2023/07/02 09:46:45;;;;;;;8.52;3.40;;;;;;;18.49;72.04;100029.97;4992082;28;20165;-47
2023/07/02 09:49:14;;;;;;;12.07;4.10;;;;;;;19.19;70.73;100013.22;4991221;28;20181;-45
2023/07/02 09:51:42;;;;;;;11.20;3.58;;;;;;;18.85;69.70;100013.44;4991373;28;20184;-46
2023/07/02 09:54:07;;;;;;;10.57;3.45;;;;;;;19.14;69.43;100009.06;4990237;28;20209;-46
2023/07/02 09:56:33;;;;;;;12.52;3.45;;;;;;;19.08;68.68;100004.16;4991155;28;20166;-47
2023/07/02 09:58:59;;;;;;;14.43;4.53;;;;;;;19.19;69.52;99996.94;4991115;28;20174;-49
2023/07/02 10:01:24;;;;;;;12.70;3.40;;;;;;;19.33;69.32;100002.03;4991011;28;20362;-46
2023/07/02 10:03:50;;;;;;;13.90;3.78;;;;;;;19.43;68.71;100012.91;4990905;28;20201;-47
2023/07/02 10:06:15;;;;;;;13.80;4.40;;;;;;;19.14;68.30;99992.75;4991324;28;20161;-48
2023/07/02 10:08:52;;;;;;;14.57;4.00;;;;;;;19.65;68.74;99995.56;4991206;28;20303;-45
2023/07/02 10:11:18;;;;;;;10.38;3.70;;;;;;;19.47;66.99;99970.91;4991051;28;20517;-48
2023/07/02 10:13:43;;;;;;;11.70;3.45;;;;;;;19.57;66.82;99982.69;4991049;28;20201;-45
2023/07/02 10:16:09;;;;;;;12.73;3.50;;;;;;;19.35;65.87;99987.31;4991056;28;20220;-46
2023/07/02 10:18:34;;;;;;;15.40;3.35;;;;;;;19.28;65.74;99994.25;4990697;28;20326;-47
2023/07/02 10:21:00;;;;;;;15.13;4.30;;;;;;;19.54;65.18;99980.22;4991115;28;20606;-45
2023/07/02 10:23:35;;;;;;;12.85;3.55;;;;;;;19.40;64.21;99986.03;4991009;28;20597;-44
2023/07/02 10:26:19;;;;;;;13.98;3.70;;;;;;;19.46;65.27;99999.94;4991134;28;20642;-49
2023/07/02 10:28:56;;;;;;;13.07;3.40;;;;;;;19.43;64.53;99972.16;4990577;28;20228;-45
2023/07/02 10:31:22;;;;;;;13.93;3.70;;;;;;;18.99;64.95;99988.66;4990579;28;20224;-46
2023/07/02 10:33:48;;;;;;;10.07;3.13;;;;;;;18.55;66.66;99985.19;4990299;28;20197;-45
2023/07/02 10:36:20;;;;;;;16.08;3.95;;;;;;;19.10;67.44;100013.03;4990679;28;20173;-50
2023/07/02 10:38:47;;;;;;;16.10;3.70;;;;;;;19.28;66.95;100013.25;4990687;28;20640;-47
2023/07/02 10:41:12;;;;;;;11.40;3.35;;;;;;;19.72;68.23;100032.97;4990592;28;20532;-45
2023/07/02 10:43:38;;;;;;;9.93;3.10;;;;;;;19.22;67.11;100015.66;4990115;28;20193;-49
2023/07/02 10:46:04;;;;;;;12.80;3.47;;;;;;;19.31;67.04;100018.44;4990224;28;20169;-47
2023/07/02 10:48:31;;;;;;;7.53;2.67;;;;;;;19.63;66.09;100016.56;4990178;28;20244;-49
2023/07/02 10:50:56;;;;;;;10.38;2.60;;;;;;;19.73;65.72;100015.66;4990109;28;20161;-50
2023/07/02 10:53:22;;;;;;;10.10;3.08;;;;;;;19.73;63.61;100018.38;4990301;28;20745;-46
2023/07/02 10:55:57;;;;;;;8.60;2.50;;;;;;;18.87;62.98;99997.88;4990719;28;20640;-45
2023/07/02 10:58:24;;;;;;;12.63;2.60;;;;;;;19.42;63.32;99994.91;4990786;28;20686;-44
2023/07/02 11:00:51;;;;;;;9.05;2.53;;;;;;;19.94;63.51;100011.97;4990090;28;20205;-48
2023/07/02 11:03:18;;;;;;;10.80;2.85;;;;;;;19.74;63.15;100001.09;4988959;28;20193;-46
2023/07/02 11:05:44;;;;;;;7.10;2.50;;;;;;;19.67;63.60;100042.50;4989188;28;20579;-47
2023/07/02 11:08:10;;;;;;;13.65;3.05;;;;;;;19.37;63.62;100002.59;4990630;28;20176;-47
2023/07/02 11:10:35;;;;;;;9.43;2.30;;;;;;;19.39;63.66;100008.75;4990348;28;20169;-50
2023/07/02 11:13:14;;;;;;;16.10;3.35;;;;;;;19.06;64.33;100022.44;4990328;28;20192;-45
2023/07/02 11:15:41;;;;;;;12.32;3.00;;;;;;;18.88;65.22;100037.59;4990338;28;20165;-48
2023/07/02 11:18:10;;;;;;;10.45;2.30;;;;;;;19.28;60.27;100017.84;4984683;28;20189;-47